sensor_id;sensor_type;location;lat;lon;timestamp;pressure;altitude;pressure_sealevel;temperature;humidity
69909;BME280;57190;47.918;8.112;2023-01-29T00:01:50;91397.25;;;-3.17;77.63
69909;BME280;57190;47.918;8.112;2023-01-29T00:04:16;91400.66;;;-3.16;77.03
69909;BME280;57190;47.918;8.112;2023-01-29T00:06:42;91401.47;;;-3.16;77.85
69909;BME280;57190;47.918;8.112;2023-01-29T00:09:09;91396.59;;;-3.19;77.78
69909;BME280;57190;47.918;8.112;2023-01-29T00:11:34;91398.56;;;-3.21;77.55
69909;BME280;57190;47.918;8.112;2023-01-29T00:14:00;91400.13;;;-3.11;77.73
69909;BME280;57190;47.918;8.112;2023-01-29T00:16:26;91408.75;;;-3.03;76.98
69909;BME280;57190;47.918;8.112;2023-01-29T00:18:51;91405.53;;;-3.13;77.36
69909;BME280;57190;47.918;8.112;2023-01-29T00:21:19;91404.75;;;-3.22;77.85
69909;BME280;57190;47.918;8.112;2023-01-29T00:23:45;91408.22;;;-2.98;77.51
69909;BME280;57190;47.918;8.112;2023-01-29T00:26:11;91408.91;;;-3.04;77.27
69909;BME280;57190;47.918;8.112;2023-01-29T00:28:37;91398.88;;;-2.92;76.41
69909;BME280;57190;47.918;8.112;2023-01-29T00:31:12;91390.81;;;-3.06;76.48
69909;BME280;57190;47.918;8.112;2023-01-29T00:33:38;91392.19;;;-3.18;77.88
69909;BME280;57190;47.918;8.112;2023-01-29T00:36:05;91395.94;;;-3.21;77.78
69909;BME280;57190;47.918;8.112;2023-01-29T00:38:32;91399.34;;;-3.12;77.20
69909;BME280;57190;47.918;8.112;2023-01-29T00:41:07;91398.69;;;-3.14;77.61
69909;BME280;57190;47.918;8.112;2023-01-29T00:43:51;91400.31;;;-3.13;77.19
69909;BME280;57190;47.918;8.112;2023-01-29T00:46:35;91403.03;;;-3.06;77.34
69909;BME280;57190;47.918;8.112;2023-01-29T00:49:00;91400.09;;;-3.03;77.02
69909;BME280;57190;47.918;8.112;2023-01-29T00:51:26;91399.91;;;-3.02;76.68
69909;BME280;57190;47.918;8.112;2023-01-29T00:53:51;91400.97;;;-3.11;76.81
69909;BME280;57190;47.918;8.112;2023-01-29T00:56:18;91401.13;;;-3.12;77.15
69909;BME280;57190;47.918;8.112;2023-01-29T00:58:44;91402.88;;;-3.05;76.70
69909;BME280;57190;47.918;8.112;2023-01-29T01:01:09;91400.44;;;-3.06;76.37
69909;BME280;57190;47.918;8.112;2023-01-29T01:03:34;91402.53;;;-3.02;75.94
69909;BME280;57190;47.918;8.112;2023-01-29T01:06:08;91399.59;;;-2.98;75.65
69909;BME280;57190;47.918;8.112;2023-01-29T01:08:34;91393.94;;;-3.10;75.57
69909;BME280;57190;47.918;8.112;2023-01-29T01:11:18;91388.81;;;-3.27;76.57
69909;BME280;57190;47.918;8.112;2023-01-29T01:13:44;91387.78;;;-3.18;76.05
69909;BME280;57190;47.918;8.112;2023-01-29T01:16:15;91396.59;;;-3.19;76.83
69909;BME280;57190;47.918;8.112;2023-01-29T01:18:41;91396.59;;;-3.19;76.63
69909;BME280;57190;47.918;8.112;2023-01-29T01:21:07;91413.88;;;-3.18;76.91
69909;BME280;57190;47.918;8.112;2023-01-29T01:23:33;91408.25;;;-3.29;77.10
69909;BME280;57190;47.918;8.112;2023-01-29T01:25:59;91410.50;;;-3.26;76.60
69909;BME280;57190;47.918;8.112;2023-01-29T01:28:26;91395.16;;;-3.21;76.01
69909;BME280;57190;47.918;8.112;2023-01-29T01:30:52;91402.19;;;-3.30;76.21
69909;BME280;57190;47.918;8.112;2023-01-29T01:33:17;91403.16;;;-3.31;76.97
69909;BME280;57190;47.918;8.112;2023-01-29T01:35:43;91404.19;;;-3.32;76.33
69909;BME280;57190;47.918;8.112;2023-01-29T01:38:08;91412.84;;;-3.40;76.34
69909;BME280;57190;47.918;8.112;2023-01-29T01:40:34;91411.66;;;-3.29;75.67
69909;BME280;57190;47.918;8.112;2023-01-29T01:43:00;91410.88;;;-3.38;75.78
69909;BME280;57190;47.918;8.112;2023-01-29T01:45:35;91417.56;;;-3.35;75.55
69909;BME280;57190;47.918;8.112;2023-01-29T01:48:22;91410.03;;;-3.30;75.28
69909;BME280;57190;47.918;8.112;2023-01-29T01:50:59;91419.53;;;-3.45;76.10
69909;BME280;57190;47.918;8.112;2023-01-29T01:53:31;91420.53;;;-3.47;75.02
69909;BME280;57190;47.918;8.112;2023-01-29T01:56:02;91414.72;;;-3.57;75.09
69909;BME280;57190;47.918;8.112;2023-01-29T01:58:33;91413.56;;;-3.54;74.98
69909;BME280;57190;47.918;8.112;2023-01-29T02:01:03;91408.50;;;-3.56;75.35
69909;BME280;57190;47.918;8.112;2023-01-29T02:03:36;91410.13;;;-3.55;76.24
69909;BME280;57190;47.918;8.112;2023-01-29T02:06:23;91410.78;;;-3.53;75.49
69909;BME280;57190;47.918;8.112;2023-01-29T02:09:18;91407.84;;;-3.50;75.82
69909;BME280;57190;47.918;8.112;2023-01-29T02:12:07;91409.16;;;-3.54;75.16
69909;BME280;57190;47.918;8.112;2023-01-29T02:14:34;91408.03;;;-3.59;75.23
69909;BME280;57190;47.918;8.112;2023-01-29T02:17:07;91402.19;;;-3.61;74.87
69909;BME280;57190;47.918;8.112;2023-01-29T02:19:58;91400.56;;;-3.63;75.00
69909;BME280;57190;47.918;8.112;2023-01-29T02:28:11;91396.44;;;-3.49;74.88
69909;BME280;57190;47.918;8.112;2023-01-29T02:30:43;91400.38;;;-3.61;75.71
69909;BME280;57190;47.918;8.112;2023-01-29T02:39:34;91403.66;;;-3.67;76.06
69909;BME280;57190;47.918;8.112;2023-01-29T02:41:40;91411.59;;;-3.60;76.42
69909;BME280;57190;47.918;8.112;2023-01-29T02:44:43;91410.66;;;-3.68;76.03
69909;BME280;57190;47.918;8.112;2023-01-29T02:52:41;91406.63;;;-3.79;75.76
69909;BME280;57190;47.918;8.112;2023-01-29T02:55:23;91407.44;;;-3.70;75.97
69909;BME280;57190;47.918;8.112;2023-01-29T02:57:53;91401.69;;;-3.65;75.70
69909;BME280;57190;47.918;8.112;2023-01-29T03:00:27;91396.00;;;-3.69;75.80
69909;BME280;57190;47.918;8.112;2023-01-29T03:03:02;91397.19;;;-3.80;76.24
69909;BME280;57190;47.918;8.112;2023-01-29T03:05:39;91397.84;;;-3.77;75.80
69909;BME280;57190;47.918;8.112;2023-01-29T03:08:11;91394.28;;;-3.85;76.45
69909;BME280;57190;47.918;8.112;2023-01-29T03:10:47;91403.25;;;-3.87;76.30
69909;BME280;57190;47.918;8.112;2023-01-29T03:13:19;91406.97;;;-3.90;76.42
69909;BME280;57190;47.918;8.112;2023-01-29T03:15:56;91405.38;;;-3.91;76.18
69909;BME280;57190;47.918;8.112;2023-01-29T03:18:30;91402.59;;;-3.89;76.75
69909;BME280;57190;47.918;8.112;2023-01-29T03:21:07;91406.66;;;-3.87;76.89
69909;BME280;57190;47.918;8.112;2023-01-29T03:23:56;91408.47;;;-3.87;76.95
69909;BME280;57190;47.918;8.112;2023-01-29T03:26:42;91414.44;;;-3.79;76.93
69909;BME280;57190;47.918;8.112;2023-01-29T03:29:30;91417.09;;;-3.87;76.53
69909;BME280;57190;47.918;8.112;2023-01-29T03:32:16;91408.94;;;-3.84;77.05
69909;BME280;57190;47.918;8.112;2023-01-29T03:34:48;91402.88;;;-3.76;76.81
69909;BME280;57190;47.918;8.112;2023-01-29T03:39:47;91397.19;;;-3.80;77.57
69909;BME280;57190;47.918;8.112;2023-01-29T03:42:17;91408.88;;;-3.67;77.47
69909;BME280;57190;47.918;8.112;2023-01-29T03:45:04;91410.19;;;-3.71;77.25
69909;BME280;57190;47.918;8.112;2023-01-29T03:47:45;91418.81;;;-3.63;77.11
69909;BME280;57190;47.918;8.112;2023-01-29T03:53:29;91409.88;;;-3.68;77.35
69909;BME280;57190;47.918;8.112;2023-01-29T03:56:07;91405.16;;;-3.73;77.50
69909;BME280;57190;47.918;8.112;2023-01-29T03:58:36;91393.56;;;-3.70;76.45
69909;BME280;57190;47.918;8.112;2023-01-29T04:01:30;91402.56;;;-3.81;77.47
69909;BME280;57190;47.918;8.112;2023-01-29T04:04:26;91393.28;;;-3.75;76.39
69909;BME280;57190;47.918;8.112;2023-01-29T04:06:54;91392.00;;;-3.88;77.61
69909;BME280;57190;47.918;8.112;2023-01-29T04:09:57;91401.00;;;-3.99;78.37
69909;BME280;57190;47.918;8.112;2023-01-29T04:12:28;91398.69;;;-4.02;78.11
69909;BME280;57190;47.918;8.112;2023-01-29T04:14:57;91403.78;;;-4.08;76.46
69909;BME280;57190;47.918;8.112;2023-01-29T04:17:29;91395.81;;;-4.15;76.41
69909;BME280;57190;47.918;8.112;2023-01-29T04:19:58;91392.25;;;-4.22;76.66
69909;BME280;57190;47.918;8.112;2023-01-29T04:22:36;91396.47;;;-4.21;76.91
69909;BME280;57190;47.918;8.112;2023-01-29T04:25:12;91399.59;;;-4.26;77.22
69909;BME280;57190;47.918;8.112;2023-01-29T04:28:25;91395.66;;;-4.22;77.55
69909;BME280;57190;47.918;8.112;2023-01-29T04:30:45;91403.16;;;-4.27;76.45
69909;BME280;57190;47.918;8.112;2023-01-29T04:36:27;91404.94;;;-4.28;76.51
69909;BME280;57190;47.918;8.112;2023-01-29T04:39:24;91407.88;;;-4.31;76.63
69909;BME280;57190;47.918;8.112;2023-01-29T04:42:13;91409.84;;;-4.33;76.40
69909;BME280;57190;47.918;8.112;2023-01-29T04:44:51;91409.34;;;-4.36;77.39
69909;BME280;57190;47.918;8.112;2023-01-29T04:53:16;91410.16;;;-4.36;77.02
69909;BME280;57190;47.918;8.112;2023-01-29T04:55:47;91397.97;;;-4.35;76.83
69909;BME280;57190;47.918;8.112;2023-01-29T04:58:25;91398.28;;;-4.38;77.57
69909;BME280;57190;47.918;8.112;2023-01-29T05:00:53;91394.69;;;-4.37;76.85
69909;BME280;57190;47.918;8.112;2023-01-29T05:03:22;91394.38;;;-4.34;77.51
69909;BME280;57190;47.918;8.112;2023-01-29T05:05:50;91399.75;;;-4.36;77.05
69909;BME280;57190;47.918;8.112;2023-01-29T05:08:18;91389.19;;;-4.34;76.75
69909;BME280;57190;47.918;8.112;2023-01-29T05:10:47;91389.97;;;-4.42;77.39
69909;BME280;57190;47.918;8.112;2023-01-29T05:13:14;91387.38;;;-4.50;77.50
69909;BME280;57190;47.918;8.112;2023-01-29T05:15:48;91390.34;;;-4.45;77.54
69909;BME280;57190;47.918;8.112;2023-01-29T05:18:16;91397.00;;;-4.51;77.52
69909;BME280;57190;47.918;8.112;2023-01-29T05:20:42;91396.03;;;-4.50;78.20
69909;BME280;57190;47.918;8.112;2023-01-29T05:23:19;91396.34;;;-4.36;77.43
69909;BME280;57190;47.918;8.112;2023-01-29T05:25:47;91396.63;;;-4.23;77.46
69909;BME280;57190;47.918;8.112;2023-01-29T05:28:13;91393.41;;;-4.25;77.09
69909;BME280;57190;47.918;8.112;2023-01-29T05:30:48;91399.75;;;-4.36;76.69
69909;BME280;57190;47.918;8.112;2023-01-29T05:35:47;91402.84;;;-4.49;77.55
69909;BME280;57190;47.918;8.112;2023-01-29T05:38:14;91400.59;;;-4.52;78.08
69909;BME280;57190;47.918;8.112;2023-01-29T05:40:40;91397.63;;;-4.49;78.54
69909;BME280;57190;47.918;8.112;2023-01-29T05:43:14;91398.94;;;-4.45;78.20
69909;BME280;57190;47.918;8.112;2023-01-29T05:45:40;91406.75;;;-4.45;77.80
69909;BME280;57190;47.918;8.112;2023-01-29T05:48:06;91411.31;;;-4.38;77.59
69909;BME280;57190;47.918;8.112;2023-01-29T05:50:31;91403.47;;;-4.30;77.85
69909;BME280;57190;47.918;8.112;2023-01-29T05:53:00;91406.75;;;-4.28;77.47
69909;BME280;57190;47.918;8.112;2023-01-29T05:55:27;91411.94;;;-4.28;78.28
69909;BME280;57190;47.918;8.112;2023-01-29T05:57:54;91415.53;;;-4.29;77.26
69909;BME280;57190;47.918;8.112;2023-01-29T06:00:19;91415.22;;;-4.34;77.24
69909;BME280;57190;47.918;8.112;2023-01-29T06:02:45;91416.03;;;-4.34;77.78
69909;BME280;57190;47.918;8.112;2023-01-29T06:05:11;91414.56;;;-4.28;77.22
69909;BME280;57190;47.918;8.112;2023-01-29T06:07:36;91423.66;;;-4.32;77.57
69909;BME280;57190;47.918;8.112;2023-01-29T06:10:04;91422.84;;;-4.33;77.18
69909;BME280;57190;47.918;8.112;2023-01-29T06:12:30;91422.88;;;-4.41;76.93
69909;BME280;57190;47.918;8.112;2023-01-29T06:14:55;91426.78;;;-4.45;77.74
69909;BME280;57190;47.918;8.112;2023-01-29T06:17:21;91430.03;;;-4.43;77.84
69909;BME280;57190;47.918;8.112;2023-01-29T06:19:46;91427.59;;;-4.45;77.35
69909;BME280;57190;47.918;8.112;2023-01-29T06:22:12;91425.66;;;-4.43;77.53
69909;BME280;57190;47.918;8.112;2023-01-29T06:24:37;91417.66;;;-4.24;77.03
69909;BME280;57190;47.918;8.112;2023-01-29T06:27:03;91419.47;;;-4.33;77.63
69909;BME280;57190;47.918;8.112;2023-01-29T06:29:28;91407.56;;;-4.44;77.06
69909;BME280;57190;47.918;8.112;2023-01-29T06:31:54;91405.63;;;-4.50;77.68
69909;BME280;57190;47.918;8.112;2023-01-29T06:34:19;91401.72;;;-4.63;78.03
69909;BME280;57190;47.918;8.112;2023-01-29T06:36:44;91400.91;;;-4.63;78.35
69909;BME280;57190;47.918;8.112;2023-01-29T06:39:10;91399.44;;;-4.66;78.80
69909;BME280;57190;47.918;8.112;2023-01-29T06:41:36;91389.50;;;-4.62;78.33
69909;BME280;57190;47.918;8.112;2023-01-29T06:44:02;91396.19;;;-4.60;78.29
69909;BME280;57190;47.918;8.112;2023-01-29T06:46:27;91390.66;;;-4.65;78.45
69909;BME280;57190;47.918;8.112;2023-01-29T06:48:53;91400.91;;;-4.71;78.02
69909;BME280;57190;47.918;8.112;2023-01-29T06:51:18;91397.97;;;-4.77;78.20
69909;BME280;57190;47.918;8.112;2023-01-29T06:53:45;91401.25;;;-4.66;78.55
69909;BME280;57190;47.918;8.112;2023-01-29T06:56:11;91396.66;;;-4.72;77.78
69909;BME280;57190;47.918;8.112;2023-01-29T06:58:37;91400.09;;;-4.80;78.25
69909;BME280;57190;47.918;8.112;2023-01-29T07:01:07;91407.91;;;-4.80;78.38
69909;BME280;57190;47.918;8.112;2023-01-29T07:03:34;91412.63;;;-4.84;78.66
69909;BME280;57190;47.918;8.112;2023-01-29T07:05:59;91415.38;;;-4.85;78.56
69909;BME280;57190;47.918;8.112;2023-01-29T07:08:25;91415.84;;;-4.82;78.36
69909;BME280;57190;47.918;8.112;2023-01-29T07:10:51;91416.84;;;-4.83;78.95
69909;BME280;57190;47.918;8.112;2023-01-29T07:13:17;91409.19;;;-4.76;79.02
69909;BME280;57190;47.918;8.112;2023-01-29T07:15:42;91430.50;;;-4.72;78.55
69909;BME280;57190;47.918;8.112;2023-01-29T07:18:09;91429.38;;;-4.70;77.94
69909;BME280;57190;47.918;8.112;2023-01-29T07:20:39;91429.06;;;-4.67;77.97
69909;BME280;57190;47.918;8.112;2023-01-29T07:23:04;91428.25;;;-4.67;77.42
69909;BME280;57190;47.918;8.112;2023-01-29T07:25:30;91427.41;;;-4.68;77.76
69909;BME280;57190;47.918;8.112;2023-01-29T07:27:59;91437.22;;;-4.62;78.29
69909;BME280;57190;47.918;8.112;2023-01-29T07:30:25;91442.41;;;-4.62;78.18
69909;BME280;57190;47.918;8.112;2023-01-29T07:32:51;91449.56;;;-4.64;77.70
69909;BME280;57190;47.918;8.112;2023-01-29T07:35:16;91434.44;;;-4.60;77.90
69909;BME280;57190;47.918;8.112;2023-01-29T07:37:41;91436.69;;;-4.57;77.49
69909;BME280;57190;47.918;8.112;2023-01-29T07:40:07;91448.44;;;-4.53;78.00
69909;BME280;57190;47.918;8.112;2023-01-29T07:42:39;91446.13;;;-4.39;77.77
69909;BME280;57190;47.918;8.112;2023-01-29T07:45:07;91433.28;;;-4.41;77.33
69909;BME280;57190;47.918;8.112;2023-01-29T07:47:33;91438.50;;;-4.41;77.86
69909;BME280;57190;47.918;8.112;2023-01-29T07:49:58;91438.66;;;-4.34;77.86
69909;BME280;57190;47.918;8.112;2023-01-29T07:52:24;91439.16;;;-4.31;77.40
69909;BME280;57190;47.918;8.112;2023-01-29T07:54:49;91437.81;;;-4.27;77.55
69909;BME280;57190;47.918;8.112;2023-01-29T07:57:14;91445.16;;;-4.30;76.84
69909;BME280;57190;47.918;8.112;2023-01-29T07:59:40;91451.03;;;-4.36;77.03
69909;BME280;57190;47.918;8.112;2023-01-29T08:02:05;91433.28;;;-4.33;78.03
69909;BME280;57190;47.918;8.112;2023-01-29T08:04:32;91444.84;;;-4.27;77.43
69909;BME280;57190;47.918;8.112;2023-01-29T08:06:58;91447.13;;;-4.24;77.13
69909;BME280;57190;47.918;8.112;2023-01-29T08:09:23;91448.09;;;-4.25;77.69
69909;BME280;57190;47.918;8.112;2023-01-29T08:11:49;91443.88;;;-4.26;77.50
69909;BME280;57190;47.918;8.112;2023-01-29T08:14:14;91448.41;;;-4.28;77.51
69909;BME280;57190;47.918;8.112;2023-01-29T08:16:40;91451.34;;;-4.23;78.04
69909;BME280;57190;47.918;8.112;2023-01-29T08:19:05;91462.59;;;-4.14;77.17
69909;BME280;57190;47.918;8.112;2023-01-29T08:21:30;91463.84;;;-3.93;76.91
69909;BME280;57190;47.918;8.112;2023-01-29T08:23:56;91468.53;;;-3.72;77.22
69909;BME280;57190;47.918;8.112;2023-01-29T08:26:21;91471.13;;;-3.64;76.33
69909;BME280;57190;47.918;8.112;2023-01-29T08:28:47;91477.31;;;-3.57;75.70
69909;BME280;57190;47.918;8.112;2023-01-29T08:31:16;91468.63;;;-3.49;75.51
69909;BME280;57190;47.918;8.112;2023-01-29T08:33:42;91477.59;;;-3.43;75.44
69909;BME280;57190;47.918;8.112;2023-01-29T08:36:08;91478.22;;;-3.33;74.27
69909;BME280;57190;47.918;8.112;2023-01-29T08:38:34;91490.75;;;-3.28;74.17
69909;BME280;57190;47.918;8.112;2023-01-29T08:40:59;91488.13;;;-3.20;74.56
69909;BME280;57190;47.918;8.112;2023-01-29T08:43:25;91502.81;;;-3.27;74.54
69909;BME280;57190;47.918;8.112;2023-01-29T08:45:50;91495.09;;;-3.21;74.22
69909;BME280;57190;47.918;8.112;2023-01-29T08:48:16;91494.78;;;-3.18;74.78
69909;BME280;57190;47.918;8.112;2023-01-29T08:50:41;91496.06;;;-3.13;74.72
69909;BME280;57190;47.918;8.112;2023-01-29T08:53:07;91489.53;;;-3.09;74.16
69909;BME280;57190;47.918;8.112;2023-01-29T08:55:39;91494.53;;;-3.00;73.76
69909;BME280;57190;47.918;8.112;2023-01-29T08:58:10;91489.81;;;-3.04;73.20
69909;BME280;57190;47.918;8.112;2023-01-29T09:00:36;91493.91;;;-3.10;72.85
69909;BME280;57190;47.918;8.112;2023-01-29T09:03:02;91502.25;;;-3.14;73.11
69909;BME280;57190;47.918;8.112;2023-01-29T09:05:28;91491.31;;;-3.10;73.15
69909;BME280;57190;47.918;8.112;2023-01-29T09:07:55;91502.72;;;-3.03;73.25
69909;BME280;57190;47.918;8.112;2023-01-29T09:10:21;91500.91;;;-3.02;72.25
69909;BME280;57190;47.918;8.112;2023-01-29T09:12:47;91498.63;;;-3.05;72.54
69909;BME280;57190;47.918;8.112;2023-01-29T09:15:12;91506.09;;;-2.94;72.26
69909;BME280;57190;47.918;8.112;2023-01-29T09:17:38;91501.03;;;-2.87;72.01
69909;BME280;57190;47.918;8.112;2023-01-29T09:20:05;91500.78;;;-2.77;72.13
69909;BME280;57190;47.918;8.112;2023-01-29T09:22:31;91498.78;;;-2.67;71.36
69909;BME280;57190;47.918;8.112;2023-01-29T09:24:56;91506.22;;;-2.56;71.11
69909;BME280;57190;47.918;8.112;2023-01-29T09:27:22;91502.41;;;-2.45;70.73
69909;BME280;57190;47.918;8.112;2023-01-29T09:29:48;91509.50;;;-2.30;70.89
69909;BME280;57190;47.918;8.112;2023-01-29T09:32:13;91511.19;;;-2.14;70.10
69909;BME280;57190;47.918;8.112;2023-01-29T09:34:39;91515.94;;;-1.95;68.96
69909;BME280;57190;47.918;8.112;2023-01-29T09:37:04;91515.28;;;-1.97;69.17
69909;BME280;57190;47.918;8.112;2023-01-29T09:39:30;91515.22;;;-1.88;68.69
69909;BME280;57190;47.918;8.112;2023-01-29T09:47:31;91510.41;;;-1.77;67.45
69909;BME280;57190;47.918;8.112;2023-01-29T09:50:02;91504.88;;;-1.82;66.72
69909;BME280;57190;47.918;8.112;2023-01-29T09:52:47;91498.19;;;-1.84;66.76
69909;BME280;57190;47.918;8.112;2023-01-29T09:55:21;91501.31;;;-1.66;66.06
69909;BME280;57190;47.918;8.112;2023-01-29T09:57:56;91499.72;;;-1.22;64.73
69909;BME280;57190;47.918;8.112;2023-01-29T10:00:37;91499.44;;;-0.97;64.26
69909;BME280;57190;47.918;8.112;2023-01-29T10:03:13;91499.44;;;-0.82;64.11
69909;BME280;57190;47.918;8.112;2023-01-29T10:06:14;91494.75;;;-0.50;62.92
69909;BME280;57190;47.918;8.112;2023-01-29T10:17:30;91494.25;;;0.83;59.87
69909;BME280;57190;47.918;8.112;2023-01-29T10:25:20;91490.06;;;3.66;53.68
69909;BME280;57190;47.918;8.112;2023-01-29T10:27:52;91488.47;;;4.03;51.36
69909;BME280;57190;47.918;8.112;2023-01-29T10:30:20;91481.53;;;4.92;48.33
69909;BME280;57190;47.918;8.112;2023-01-29T10:32:47;91470.22;;;4.84;48.75
69909;BME280;57190;47.918;8.112;2023-01-29T10:35:22;91464.56;;;3.98;50.55
69909;BME280;57190;47.918;8.112;2023-01-29T10:37:51;91465.53;;;3.06;52.54
69909;BME280;57190;47.918;8.112;2023-01-29T10:43:06;91461.16;;;2.40;53.89
69909;BME280;57190;47.918;8.112;2023-01-29T10:45:51;91454.06;;;2.13;53.85
69909;BME280;57190;47.918;8.112;2023-01-29T11:02:14;91424.69;;;1.96;53.43
69909;BME280;57190;47.918;8.112;2023-01-29T11:04:42;91417.41;;;2.05;54.40
69909;BME280;57190;47.918;8.112;2023-01-29T11:07:08;91419.03;;;2.33;53.76
69909;BME280;57190;47.918;8.112;2023-01-29T11:09:40;91413.75;;;2.46;53.00
69909;BME280;57190;47.918;8.112;2023-01-29T11:12:18;91417.81;;;2.49;52.28
69909;BME280;57190;47.918;8.112;2023-01-29T11:15:17;91413.50;;;2.61;51.73
69909;BME280;57190;47.918;8.112;2023-01-29T11:18:05;91404.25;;;2.45;52.45
69909;BME280;57190;47.918;8.112;2023-01-29T11:20:34;91404.03;;;2.47;53.98
69909;BME280;57190;47.918;8.112;2023-01-29T11:23:00;91411.28;;;2.65;52.46
69909;BME280;57190;47.918;8.112;2023-01-29T11:25:25;91409.91;;;2.42;52.41
69909;BME280;57190;47.918;8.112;2023-01-29T11:27:57;91413.53;;;2.41;53.16
69909;BME280;57190;47.918;8.112;2023-01-29T11:30:27;91413.13;;;2.71;53.51
69909;BME280;57190;47.918;8.112;2023-01-29T11:35:29;91420.75;;;2.93;51.98
69909;BME280;57190;47.918;8.112;2023-01-29T11:38:07;91422.19;;;2.82;50.95
69909;BME280;57190;47.918;8.112;2023-01-29T11:40:37;91416.53;;;2.85;52.28
69909;BME280;57190;47.918;8.112;2023-01-29T11:45:54;91422.69;;;3.18;51.15
69909;BME280;57190;47.918;8.112;2023-01-29T11:48:22;91418.69;;;3.08;51.94
69909;BME280;57190;47.918;8.112;2023-01-29T11:50:58;91410.91;;;3.20;52.10
69909;BME280;57190;47.918;8.112;2023-01-29T11:53:42;91410.69;;;3.28;53.56
69909;BME280;57190;47.918;8.112;2023-01-29T11:56:19;91410.97;;;3.07;53.13
69909;BME280;57190;47.918;8.112;2023-01-29T11:58:46;91409.03;;;2.89;54.15
69909;BME280;57190;47.918;8.112;2023-01-29T12:01:16;91408.03;;;2.83;55.22
69909;BME280;57190;47.918;8.112;2023-01-29T12:03:45;91392.63;;;2.73;55.71
69909;BME280;57190;47.918;8.112;2023-01-29T12:06:18;91395.06;;;2.61;56.30
69909;BME280;57190;47.918;8.112;2023-01-29T12:08:54;91402.19;;;2.61;55.85
69909;BME280;57190;47.918;8.112;2023-01-29T12:11:30;91399.13;;;2.71;55.52
69909;BME280;57190;47.918;8.112;2023-01-29T12:14:00;91404.81;;;2.67;55.04
69909;BME280;57190;47.918;8.112;2023-01-29T12:22:24;91403.38;;;2.65;55.13
69909;BME280;57190;47.918;8.112;2023-01-29T12:35:18;91389.44;;;2.31;55.89
69909;BME280;57190;47.918;8.112;2023-01-29T12:38:05;91391.28;;;2.30;55.58
69909;BME280;57190;47.918;8.112;2023-01-29T12:40:39;91387.84;;;2.16;56.23
69909;BME280;57190;47.918;8.112;2023-01-29T12:43:21;91392.31;;;2.09;55.86
69909;BME280;57190;47.918;8.112;2023-01-29T12:45:51;91381.16;;;2.07;55.97
69909;BME280;57190;47.918;8.112;2023-01-29T12:48:26;91370.63;;;2.07;56.29
69909;BME280;57190;47.918;8.112;2023-01-29T12:50:59;91374.47;;;2.38;55.42
69909;BME280;57190;47.918;8.112;2023-01-29T12:53:59;91374.84;;;2.62;55.56
69909;BME280;57190;47.918;8.112;2023-01-29T12:56:32;91375.81;;;2.74;54.92
69909;BME280;57190;47.918;8.112;2023-01-29T12:59:04;91366.25;;;2.93;54.79
69909;BME280;57190;47.918;8.112;2023-01-29T13:01:39;91362.75;;;3.06;54.34
69909;BME280;57190;47.918;8.112;2023-01-29T13:04:13;91365.56;;;3.05;53.15
69909;BME280;57190;47.918;8.112;2023-01-29T13:06:48;91362.25;;;3.23;53.79
69909;BME280;57190;47.918;8.112;2023-01-29T13:09:22;91358.81;;;3.15;54.24
69909;BME280;57190;47.918;8.112;2023-01-29T13:12:13;91355.25;;;2.96;54.20
69909;BME280;57190;47.918;8.112;2023-01-29T13:17:25;91345.84;;;2.62;54.75
69909;BME280;57190;47.918;8.112;2023-01-29T13:19:56;91344.63;;;2.71;55.58
69909;BME280;57190;47.918;8.112;2023-01-29T13:22:28;91342.34;;;2.81;55.23
69909;BME280;57190;47.918;8.112;2023-01-29T13:24:56;91339.13;;;2.73;54.26
69909;BME280;57190;47.918;8.112;2023-01-29T13:27:30;91336.56;;;2.53;54.59
69909;BME280;57190;47.918;8.112;2023-01-29T13:29:58;91329.50;;;2.46;55.31
69909;BME280;57190;47.918;8.112;2023-01-29T13:32:26;91326.47;;;2.43;55.38
69909;BME280;57190;47.918;8.112;2023-01-29T13:34:54;91314.88;;;2.50;54.71
69909;BME280;57190;47.918;8.112;2023-01-29T13:37:31;91307.03;;;2.37;55.17
69909;BME280;57190;47.918;8.112;2023-01-29T13:39:59;91310.28;;;2.32;54.85
69909;BME280;57190;47.918;8.112;2023-01-29T13:42:39;91310.09;;;2.20;55.39
69909;BME280;57190;47.918;8.112;2023-01-29T13:45:08;91313.56;;;2.08;55.15
69909;BME280;57190;47.918;8.112;2023-01-29T13:47:42;91311.34;;;1.91;56.26
69909;BME280;57190;47.918;8.112;2023-01-29T13:50:20;91308.69;;;1.98;55.60
69909;BME280;57190;47.918;8.112;2023-01-29T13:52:55;91309.72;;;2.17;55.37
69909;BME280;57190;47.918;8.112;2023-01-29T13:55:34;91304.22;;;2.25;55.96
69909;BME280;57190;47.918;8.112;2023-01-29T14:08:01;91291.25;;;2.24;56.75
69909;BME280;57190;47.918;8.112;2023-01-29T14:10:32;91285.41;;;2.08;57.14
69909;BME280;57190;47.918;8.112;2023-01-29T14:15:36;91285.84;;;2.05;56.94
69909;BME280;57190;47.918;8.112;2023-01-29T14:18:04;91281.59;;;2.04;57.81
69909;BME280;57190;47.918;8.112;2023-01-29T14:20:37;91289.28;;;2.12;57.40
69909;BME280;57190;47.918;8.112;2023-01-29T14:23:04;91291.25;;;2.24;57.67
69909;BME280;57190;47.918;8.112;2023-01-29T14:25:37;91288.59;;;2.37;56.83
69909;BME280;57190;47.918;8.112;2023-01-29T14:28:15;91288.00;;;2.35;57.21
69909;BME280;57190;47.918;8.112;2023-01-29T14:30:46;91291.63;;;2.34;57.81
69909;BME280;57190;47.918;8.112;2023-01-29T14:33:36;91286.59;;;2.26;57.98
69909;BME280;57190;47.918;8.112;2023-01-29T14:36:13;91299.19;;;2.17;58.33
69909;BME280;57190;47.918;8.112;2023-01-29T14:38:39;91293.94;;;1.90;59.15
69909;BME280;57190;47.918;8.112;2023-01-29T14:41:16;91304.47;;;1.50;59.63
69909;BME280;57190;47.918;8.112;2023-01-29T14:43:44;91301.25;;;1.34;60.71
69909;BME280;57190;47.918;8.112;2023-01-29T14:46:41;91307.84;;;1.10;61.58
69909;BME280;57190;47.918;8.112;2023-01-29T14:49:07;91313.84;;;0.90;61.98
69909;BME280;57190;47.918;8.112;2023-01-29T14:51:37;91306.53;;;0.72;62.37
69909;BME280;57190;47.918;8.112;2023-01-29T14:54:24;91311.94;;;0.57;63.47
69909;BME280;57190;47.918;8.112;2023-01-29T14:56:57;91315.94;;;0.46;63.75
69909;BME280;57190;47.918;8.112;2023-01-29T14:59:30;91325.97;;;0.36;64.45
69909;BME280;57190;47.918;8.112;2023-01-29T15:02:01;91326.31;;;0.26;64.49
69909;BME280;57190;47.918;8.112;2023-01-29T15:04:41;91325.63;;;0.11;65.11
69909;BME280;57190;47.918;8.112;2023-01-29T15:09:36;91333.19;;;-0.08;65.25
69909;BME280;57190;47.918;8.112;2023-01-29T15:14:47;91334.47;;;-0.25;65.59
69909;BME280;57190;47.918;8.112;2023-01-29T15:22:56;91342.25;;;-0.60;67.01